UDYZ/EVN METAR and TAF weather

Enter ICAO airport designator
Station Type Date Time Source
UDYZ METAR 2021/09/25 11:00 UTC NOAA

UDYZ 251100Z VRB02KT 9999 FEW043 21/04 Q1014 R09/010070 NOSIG


Station Type Date Time Source
UDYZ Decoded METAR 2021/09/25 11:00 UTC NOAA

Station name not available
Sep 25, 2021 - 07:00 AM EDT / 2021.09.25 1100 UTC
Wind: Variable at 2 MPH (2 KT):0
Visibility: greater than 7 mile(s):0
Sky conditions: mostly clear
Temperature: 69 F (21 C)
Dew Point: 39 F (4 C)
Relative Humidity: 32%
Pressure (altimeter): 29.94 in. Hg (1014 hPa)
ob: UDYZ 251100Z VRB02KT 9999 FEW043 21/04 Q1014 R09/010070 NOSIG
cycle: 11

Station Type Date Time Source
UDYZ TAF 2021/09/25 12:00 UTC NOAA

TAF UDYZ 251110Z 2512/2612 04006KT 9999 FEW040

Example: see airport list